This is the latest recevied weather packets stored in our database for station/object HB0PJ-13. If no packets are shown the sender has not sent any weather packets the latest 1 day(s).
| Time | Temp. | Humidity | Pressure | Rain* | Wind** | Luminosity | Snow |
|---|---|---|---|---|---|---|---|
| 1778092926 | 15° C | 54% | 954 hPa | - | - | 0 W/m² | - |
| 1778092806 | 15.56° C | 53% | 954 hPa | - | - | 0 W/m² | - |
| 1778092686 | 15.56° C | 53% | 954 hPa | - | - | 0 W/m² | - |
| 1778092566 | 15.56° C | 52% | 953.9 hPa | - | - | 1 W/m² | - |
| 1778092446 | 15.56° C | 52% | 953.8 hPa | - | - | 1 W/m² | - |
| 1778092326 | 16.11° C | 51% | 953.7 hPa | - | - | 1 W/m² | - |
| 1778092086 | 16.11° C | 50% | 953.7 hPa | - | - | 2 W/m² | - |
| 1778091846 | 16.67° C | 50% | 953.6 hPa | - | - | 3 W/m² | - |
| 1778091726 | 17.22° C | 48% | 953.6 hPa | - | - | 4 W/m² | - |
| 1778091606 | 17.78° C | 48% | 953.6 hPa | - | - | 5 W/m² | - |
| 1778091246 | 18.89° C | 44% | 953.4 hPa | - | - | 9 W/m² | - |
| 1778091006 | 20.56° C | 43% | 953.5 hPa | - | - | 11 W/m² | - |
| 1778090766 | 22.78° C | 40% | 953.5 hPa | - | - | 85 W/m² | - |
| 1778090646 | 23.33° C | 40% | 953.7 hPa | - | - | 281 W/m² | - |
| 1778090286 | 23.33° C | 39% | 953.6 hPa | - | - | 367 W/m² | - |
| 1778090166 | 23.33° C | 41% | 953.5 hPa | - | - | 376 W/m² | - |
| 1778089926 | 22.78° C | 40% | 953.6 hPa | - | - | 431 W/m² | - |
| 1778089566 | 22.22° C | 43% | 953.6 hPa | - | - | 512 W/m² | - |
| 1778089326 | 22.22° C | 44% | 953.5 hPa | - | - | 566 W/m² | - |
| 1778089206 | 21.67° C | 45% | 953.5 hPa | - | - | 585 W/m² | - |
| 1778089086 | 21.11° C | 47% | 953.5 hPa | - | - | 639 W/m² | - |
| 1778088726 | 17.22° C | 52% | 953.6 hPa | - | - | 312 W/m² | - |
| 1778088486 | 16.11° C | 53% | 953.3 hPa | - | - | 22 W/m² | - |
| 1778088366 | 16.11° C | 52% | 953.2 hPa | - | - | 20 W/m² | - |
| 1778088007 | 16.67° C | 52% | 953.3 hPa | - | - | 17 W/m² | - |
* Rain since midnight (hover to see other rain measurements)
** Current wind speed in m/s (hover to see current wind gust speed)